sensor_id;sensor_type;location;lat;lon;timestamp;temperature;humidity
6377;DHT22;3221;48.858;10.128;2023-02-03T00:01:56;3.00;99.90
6377;DHT22;3221;48.858;10.128;2023-02-03T00:04:23;3.00;99.90
6377;DHT22;3221;48.858;10.128;2023-02-03T00:06:50;3.00;99.90
6377;DHT22;3221;48.858;10.128;2023-02-03T00:09:17;3.00;99.90
6377;DHT22;3221;48.858;10.128;2023-02-03T00:11:45;3.00;99.90
6377;DHT22;3221;48.858;10.128;2023-02-03T00:14:11;3.00;99.90
6377;DHT22;3221;48.858;10.128;2023-02-03T00:16:38;3.00;99.90
6377;DHT22;3221;48.858;10.128;2023-02-03T00:19:05;3.00;99.90
6377;DHT22;3221;48.858;10.128;2023-02-03T00:21:32;3.00;99.90
6377;DHT22;3221;48.858;10.128;2023-02-03T00:23:58;3.00;99.90
6377;DHT22;3221;48.858;10.128;2023-02-03T00:26:25;3.00;99.90
6377;DHT22;3221;48.858;10.128;2023-02-03T00:28:54;3.00;99.90
6377;DHT22;3221;48.858;10.128;2023-02-03T00:31:22;3.00;99.90
6377;DHT22;3221;48.858;10.128;2023-02-03T00:33:54;3.00;99.90
6377;DHT22;3221;48.858;10.128;2023-02-03T00:36:22;3.00;99.90
6377;DHT22;3221;48.858;10.128;2023-02-03T00:38:49;3.00;99.90
6377;DHT22;3221;48.858;10.128;2023-02-03T00:41:16;3.00;99.90
6377;DHT22;3221;48.858;10.128;2023-02-03T00:43:43;3.00;99.90
6377;DHT22;3221;48.858;10.128;2023-02-03T00:46:10;3.00;99.90
6377;DHT22;3221;48.858;10.128;2023-02-03T00:48:37;3.00;99.90
6377;DHT22;3221;48.858;10.128;2023-02-03T00:51:05;3.00;99.90
6377;DHT22;3221;48.858;10.128;2023-02-03T00:53:32;3.00;99.90
6377;DHT22;3221;48.858;10.128;2023-02-03T00:56:00;3.00;99.90
6377;DHT22;3221;48.858;10.128;2023-02-03T00:58:27;3.00;99.90
6377;DHT22;3221;48.858;10.128;2023-02-03T01:00:54;3.00;99.90
6377;DHT22;3221;48.858;10.128;2023-02-03T01:03:23;3.00;99.90
6377;DHT22;3221;48.858;10.128;2023-02-03T01:05:50;3.00;99.90
6377;DHT22;3221;48.858;10.128;2023-02-03T01:08:18;3.00;99.90
6377;DHT22;3221;48.858;10.128;2023-02-03T01:10:45;3.00;99.90
6377;DHT22;3221;48.858;10.128;2023-02-03T01:13:12;3.00;99.90
6377;DHT22;3221;48.858;10.128;2023-02-03T01:15:45;3.00;99.90
6377;DHT22;3221;48.858;10.128;2023-02-03T01:18:13;3.00;99.90
6377;DHT22;3221;48.858;10.128;2023-02-03T01:20:40;3.00;99.90
6377;DHT22;3221;48.858;10.128;2023-02-03T01:23:07;3.00;99.90
6377;DHT22;3221;48.858;10.128;2023-02-03T01:25:35;2.90;99.90
6377;DHT22;3221;48.858;10.128;2023-02-03T01:28:02;3.00;99.90
6377;DHT22;3221;48.858;10.128;2023-02-03T01:30:31;3.00;99.90
6377;DHT22;3221;48.858;10.128;2023-02-03T01:32:58;3.00;99.90
6377;DHT22;3221;48.858;10.128;2023-02-03T01:35:25;3.00;99.90
6377;DHT22;3221;48.858;10.128;2023-02-03T01:37:52;3.00;99.90
6377;DHT22;3221;48.858;10.128;2023-02-03T01:40:19;3.00;99.90
6377;DHT22;3221;48.858;10.128;2023-02-03T01:42:45;3.00;99.90
6377;DHT22;3221;48.858;10.128;2023-02-03T01:45:12;3.00;99.90
6377;DHT22;3221;48.858;10.128;2023-02-03T01:47:46;3.00;99.90
6377;DHT22;3221;48.858;10.128;2023-02-03T01:52:49;3.00;99.90
6377;DHT22;3221;48.858;10.128;2023-02-03T01:55:20;3.00;99.90
6377;DHT22;3221;48.858;10.128;2023-02-03T01:57:55;3.00;99.90
6377;DHT22;3221;48.858;10.128;2023-02-03T02:00:24;3.00;99.90
6377;DHT22;3221;48.858;10.128;2023-02-03T02:02:56;3.00;99.90
6377;DHT22;3221;48.858;10.128;2023-02-03T02:05:28;3.00;99.90
6377;DHT22;3221;48.858;10.128;2023-02-03T02:07:57;3.00;99.90
6377;DHT22;3221;48.858;10.128;2023-02-03T02:10:25;3.00;99.90
6377;DHT22;3221;48.858;10.128;2023-02-03T02:12:55;3.00;99.90
6377;DHT22;3221;48.858;10.128;2023-02-03T02:15:42;3.00;99.90
6377;DHT22;3221;48.858;10.128;2023-02-03T02:23:44;3.00;99.90
6377;DHT22;3221;48.858;10.128;2023-02-03T02:43:18;3.00;99.90
6377;DHT22;3221;48.858;10.128;2023-02-03T02:45:53;2.90;99.90
6377;DHT22;3221;48.858;10.128;2023-02-03T02:48:25;3.00;99.90
6377;DHT22;3221;48.858;10.128;2023-02-03T02:50:56;3.00;99.90
6377;DHT22;3221;48.858;10.128;2023-02-03T02:53:28;3.00;99.90
6377;DHT22;3221;48.858;10.128;2023-02-03T02:55:59;3.00;99.90
6377;DHT22;3221;48.858;10.128;2023-02-03T02:58:30;3.00;99.90
6377;DHT22;3221;48.858;10.128;2023-02-03T03:00:57;3.00;99.90
6377;DHT22;3221;48.858;10.128;2023-02-03T03:03:24;2.90;99.90
6377;DHT22;3221;48.858;10.128;2023-02-03T03:05:55;2.90;99.90
6377;DHT22;3221;48.858;10.128;2023-02-03T03:08:54;2.90;99.90
6377;DHT22;3221;48.858;10.128;2023-02-03T03:11:24;3.00;99.90
6377;DHT22;3221;48.858;10.128;2023-02-03T03:13:55;3.00;99.90
6377;DHT22;3221;48.858;10.128;2023-02-03T03:16:25;3.00;99.90
6377;DHT22;3221;48.858;10.128;2023-02-03T03:18:57;3.00;99.90
6377;DHT22;3221;48.858;10.128;2023-02-03T03:21:29;3.00;99.90
6377;DHT22;3221;48.858;10.128;2023-02-03T03:24:00;3.00;99.90
6377;DHT22;3221;48.858;10.128;2023-02-03T03:26:43;3.00;99.90
6377;DHT22;3221;48.858;10.128;2023-02-03T03:29:24;3.00;99.90
6377;DHT22;3221;48.858;10.128;2023-02-03T03:31:54;3.10;99.90
6377;DHT22;3221;48.858;10.128;2023-02-03T03:34:21;3.10;99.90
6377;DHT22;3221;48.858;10.128;2023-02-03T03:39:43;3.10;99.90
6377;DHT22;3221;48.858;10.128;2023-02-03T03:42:28;3.10;99.90
6377;DHT22;3221;48.858;10.128;2023-02-03T03:45:02;3.00;99.90
6377;DHT22;3221;48.858;10.128;2023-02-03T03:47:55;3.00;99.90
6377;DHT22;3221;48.858;10.128;2023-02-03T03:50:29;3.00;99.90
6377;DHT22;3221;48.858;10.128;2023-02-03T03:53:00;3.00;99.90
6377;DHT22;3221;48.858;10.128;2023-02-03T03:55:30;3.00;99.90
6377;DHT22;3221;48.858;10.128;2023-02-03T03:58:06;3.00;99.90
6377;DHT22;3221;48.858;10.128;2023-02-03T04:00:38;3.00;99.90
6377;DHT22;3221;48.858;10.128;2023-02-03T04:03:22;3.10;99.90
6377;DHT22;3221;48.858;10.128;2023-02-03T04:05:52;3.00;99.90
6377;DHT22;3221;48.858;10.128;2023-02-03T04:08:22;3.00;99.90
6377;DHT22;3221;48.858;10.128;2023-02-03T04:10:49;3.00;99.90
6377;DHT22;3221;48.858;10.128;2023-02-03T04:13:16;3.00;99.90
6377;DHT22;3221;48.858;10.128;2023-02-03T04:15:45;3.00;99.90
6377;DHT22;3221;48.858;10.128;2023-02-03T04:18:17;3.10;99.90
6377;DHT22;3221;48.858;10.128;2023-02-03T04:20:44;2.90;99.90
6377;DHT22;3221;48.858;10.128;2023-02-03T04:23:11;3.10;99.90
6377;DHT22;3221;48.858;10.128;2023-02-03T04:25:38;3.00;99.90
6377;DHT22;3221;48.858;10.128;2023-02-03T04:28:05;3.00;99.90
6377;DHT22;3221;48.858;10.128;2023-02-03T04:30:35;3.10;99.90
6377;DHT22;3221;48.858;10.128;2023-02-03T04:33:10;3.10;99.90
6377;DHT22;3221;48.858;10.128;2023-02-03T04:35:37;3.10;99.90
6377;DHT22;3221;48.858;10.128;2023-02-03T04:38:04;3.10;99.90
6377;DHT22;3221;48.858;10.128;2023-02-03T04:40:31;3.10;99.90
6377;DHT22;3221;48.858;10.128;2023-02-03T04:43:06;3.10;99.90
6377;DHT22;3221;48.858;10.128;2023-02-03T04:45:33;3.00;99.90
6377;DHT22;3221;48.858;10.128;2023-02-03T04:48:00;3.10;99.90
6377;DHT22;3221;48.858;10.128;2023-02-03T04:50:27;3.10;99.90
6377;DHT22;3221;48.858;10.128;2023-02-03T04:52:54;3.00;99.90
6377;DHT22;3221;48.858;10.128;2023-02-03T04:55:21;3.10;99.90
6377;DHT22;3221;48.858;10.128;2023-02-03T04:57:55;3.10;99.90
6377;DHT22;3221;48.858;10.128;2023-02-03T05:00:26;3.00;99.90
6377;DHT22;3221;48.858;10.128;2023-02-03T05:02:54;3.00;99.90
6377;DHT22;3221;48.858;10.128;2023-02-03T05:05:21;3.00;99.90
6377;DHT22;3221;48.858;10.128;2023-02-03T05:07:48;3.00;99.90
6377;DHT22;3221;48.858;10.128;2023-02-03T05:10:15;3.00;99.90
6377;DHT22;3221;48.858;10.128;2023-02-03T05:12:45;3.10;99.90
6377;DHT22;3221;48.858;10.128;2023-02-03T05:15:23;3.00;99.90
6377;DHT22;3221;48.858;10.128;2023-02-03T05:17:52;3.10;99.90
6377;DHT22;3221;48.858;10.128;2023-02-03T05:20:20;3.10;99.90
6377;DHT22;3221;48.858;10.128;2023-02-03T05:22:47;3.10;99.90
6377;DHT22;3221;48.858;10.128;2023-02-03T05:25:14;3.00;99.90
6377;DHT22;3221;48.858;10.128;2023-02-03T05:27:41;3.10;99.90
6377;DHT22;3221;48.858;10.128;2023-02-03T05:30:09;3.00;99.90
6377;DHT22;3221;48.858;10.128;2023-02-03T05:32:38;3.00;99.90
6377;DHT22;3221;48.858;10.128;2023-02-03T05:35:05;3.00;99.90
6377;DHT22;3221;48.858;10.128;2023-02-03T05:37:32;3.00;99.90
6377;DHT22;3221;48.858;10.128;2023-02-03T05:40:03;3.00;99.90
6377;DHT22;3221;48.858;10.128;2023-02-03T05:42:54;3.00;99.90
6377;DHT22;3221;48.858;10.128;2023-02-03T05:45:21;3.00;99.90
6377;DHT22;3221;48.858;10.128;2023-02-03T05:47:48;3.00;99.90
6377;DHT22;3221;48.858;10.128;2023-02-03T05:50:15;3.10;99.90
6377;DHT22;3221;48.858;10.128;2023-02-03T05:52:44;3.00;99.90
6377;DHT22;3221;48.858;10.128;2023-02-03T05:55:11;3.00;99.90
6377;DHT22;3221;48.858;10.128;2023-02-03T05:57:38;3.00;99.90
6377;DHT22;3221;48.858;10.128;2023-02-03T06:00:06;3.00;99.90
6377;DHT22;3221;48.858;10.128;2023-02-03T06:02:37;3.00;99.90
6377;DHT22;3221;48.858;10.128;2023-02-03T06:05:04;3.00;99.90
6377;DHT22;3221;48.858;10.128;2023-02-03T06:07:31;3.00;99.90
6377;DHT22;3221;48.858;10.128;2023-02-03T06:09:58;3.00;99.90
6377;DHT22;3221;48.858;10.128;2023-02-03T06:12:25;3.00;99.90
6377;DHT22;3221;48.858;10.128;2023-02-03T06:14:55;3.10;99.90
6377;DHT22;3221;48.858;10.128;2023-02-03T06:17:22;3.00;99.90
6377;DHT22;3221;48.858;10.128;2023-02-03T06:19:49;3.00;99.90
6377;DHT22;3221;48.858;10.128;2023-02-03T06:22:16;3.00;99.90
6377;DHT22;3221;48.858;10.128;2023-02-03T06:24:43;3.00;99.90
6377;DHT22;3221;48.858;10.128;2023-02-03T06:27:12;3.00;99.90
6377;DHT22;3221;48.858;10.128;2023-02-03T06:29:42;3.00;99.90
6377;DHT22;3221;48.858;10.128;2023-02-03T06:32:09;3.10;99.90
6377;DHT22;3221;48.858;10.128;2023-02-03T06:34:36;3.00;99.90
6377;DHT22;3221;48.858;10.128;2023-02-03T06:37:03;3.00;99.90
6377;DHT22;3221;48.858;10.128;2023-02-03T06:39:30;3.10;99.90
6377;DHT22;3221;48.858;10.128;2023-02-03T06:42:00;3.10;99.90
6377;DHT22;3221;48.858;10.128;2023-02-03T06:44:27;3.00;99.90
6377;DHT22;3221;48.858;10.128;2023-02-03T06:46:54;3.00;99.90
6377;DHT22;3221;48.858;10.128;2023-02-03T06:49:28;3.10;99.90
6377;DHT22;3221;48.858;10.128;2023-02-03T06:51:55;3.20;99.90
6377;DHT22;3221;48.858;10.128;2023-02-03T06:54:22;3.00;99.90
6377;DHT22;3221;48.858;10.128;2023-02-03T06:56:49;3.00;99.90
6377;DHT22;3221;48.858;10.128;2023-02-03T06:59:16;3.00;99.90
6377;DHT22;3221;48.858;10.128;2023-02-03T07:01:43;2.90;99.90
6377;DHT22;3221;48.858;10.128;2023-02-03T07:04:10;3.00;99.90
6377;DHT22;3221;48.858;10.128;2023-02-03T07:06:37;3.00;99.90
6377;DHT22;3221;48.858;10.128;2023-02-03T07:09:05;3.10;99.90
6377;DHT22;3221;48.858;10.128;2023-02-03T07:11:33;3.00;99.90
6377;DHT22;3221;48.858;10.128;2023-02-03T07:14:00;2.90;99.90
6377;DHT22;3221;48.858;10.128;2023-02-03T07:16:28;3.00;99.90
6377;DHT22;3221;48.858;10.128;2023-02-03T07:19:01;3.10;99.90
6377;DHT22;3221;48.858;10.128;2023-02-03T07:21:28;3.10;99.90
6377;DHT22;3221;48.858;10.128;2023-02-03T07:23:55;3.10;99.90
6377;DHT22;3221;48.858;10.128;2023-02-03T07:26:22;3.10;99.90
6377;DHT22;3221;48.858;10.128;2023-02-03T07:28:51;3.10;99.90
6377;DHT22;3221;48.858;10.128;2023-02-03T07:31:18;3.00;99.90
6377;DHT22;3221;48.858;10.128;2023-02-03T07:33:45;3.00;99.90
6377;DHT22;3221;48.858;10.128;2023-02-03T07:36:12;3.20;99.90
6377;DHT22;3221;48.858;10.128;2023-02-03T07:38:39;3.10;99.90
6377;DHT22;3221;48.858;10.128;2023-02-03T07:41:06;3.00;99.90
6377;DHT22;3221;48.858;10.128;2023-02-03T07:43:33;3.10;99.90
6377;DHT22;3221;48.858;10.128;2023-02-03T07:46:00;3.00;99.90
6377;DHT22;3221;48.858;10.128;2023-02-03T07:48:28;3.10;99.90
6377;DHT22;3221;48.858;10.128;2023-02-03T07:50:55;3.10;99.90
6377;DHT22;3221;48.858;10.128;2023-02-03T07:53:22;3.10;99.90
6377;DHT22;3221;48.858;10.128;2023-02-03T07:55:49;3.10;99.90
6377;DHT22;3221;48.858;10.128;2023-02-03T07:58:16;3.10;99.90
6377;DHT22;3221;48.858;10.128;2023-02-03T08:00:44;3.10;99.90
6377;DHT22;3221;48.858;10.128;2023-02-03T08:03:11;3.10;99.90
6377;DHT22;3221;48.858;10.128;2023-02-03T08:05:38;3.20;99.90
6377;DHT22;3221;48.858;10.128;2023-02-03T08:08:08;3.10;99.90
6377;DHT22;3221;48.858;10.128;2023-02-03T08:10:40;3.20;99.90
6377;DHT22;3221;48.858;10.128;2023-02-03T08:13:07;3.10;99.90
6377;DHT22;3221;48.858;10.128;2023-02-03T08:15:35;3.20;99.90
6377;DHT22;3221;48.858;10.128;2023-02-03T08:18:02;3.10;99.90
6377;DHT22;3221;48.858;10.128;2023-02-03T08:20:32;3.10;99.90
6377;DHT22;3221;48.858;10.128;2023-02-03T08:22:59;3.10;99.90
6377;DHT22;3221;48.858;10.128;2023-02-03T08:25:26;3.10;99.90
6377;DHT22;3221;48.858;10.128;2023-02-03T08:27:53;3.10;99.90
6377;DHT22;3221;48.858;10.128;2023-02-03T08:30:21;3.10;99.90
6377;DHT22;3221;48.858;10.128;2023-02-03T08:32:49;3.10;99.90
6377;DHT22;3221;48.858;10.128;2023-02-03T08:35:16;3.10;99.90
6377;DHT22;3221;48.858;10.128;2023-02-03T08:37:44;3.10;99.90
6377;DHT22;3221;48.858;10.128;2023-02-03T08:40:12;3.10;99.90
6377;DHT22;3221;48.858;10.128;2023-02-03T08:42:39;3.10;99.90
6377;DHT22;3221;48.858;10.128;2023-02-03T08:45:07;3.00;99.90
6377;DHT22;3221;48.858;10.128;2023-02-03T08:47:34;3.10;99.90
6377;DHT22;3221;48.858;10.128;2023-02-03T08:50:13;3.10;99.90
6377;DHT22;3221;48.858;10.128;2023-02-03T08:52:40;3.10;99.90
6377;DHT22;3221;48.858;10.128;2023-02-03T08:55:10;3.10;99.90
6377;DHT22;3221;48.858;10.128;2023-02-03T08:57:38;3.10;99.90
6377;DHT22;3221;48.858;10.128;2023-02-03T09:00:09;3.20;99.90
6377;DHT22;3221;48.858;10.128;2023-02-03T09:02:36;3.10;99.90
6377;DHT22;3221;48.858;10.128;2023-02-03T09:05:06;3.10;99.90
6377;DHT22;3221;48.858;10.128;2023-02-03T09:07:33;3.20;99.90
6377;DHT22;3221;48.858;10.128;2023-02-03T09:10:00;3.10;99.90
6377;DHT22;3221;48.858;10.128;2023-02-03T09:12:27;3.10;99.90
6377;DHT22;3221;48.858;10.128;2023-02-03T09:14:55;3.10;99.90
6377;DHT22;3221;48.858;10.128;2023-02-03T09:17:22;3.10;99.90
6377;DHT22;3221;48.858;10.128;2023-02-03T09:19:48;3.10;99.90
6377;DHT22;3221;48.858;10.128;2023-02-03T09:22:15;3.10;99.90
6377;DHT22;3221;48.858;10.128;2023-02-03T09:24:48;3.10;99.90
6377;DHT22;3221;48.858;10.128;2023-02-03T09:27:17;3.30;99.90
6377;DHT22;3221;48.858;10.128;2023-02-03T09:29:46;3.10;99.90
6377;DHT22;3221;48.858;10.128;2023-02-03T09:32:13;3.20;99.90
6377;DHT22;3221;48.858;10.128;2023-02-03T09:34:41;3.10;99.90
6377;DHT22;3221;48.858;10.128;2023-02-03T09:37:11;3.10;99.90
6377;DHT22;3221;48.858;10.128;2023-02-03T09:39:38;3.10;99.90
6377;DHT22;3221;48.858;10.128;2023-02-03T09:47:45;3.10;99.90
6377;DHT22;3221;48.858;10.128;2023-02-03T09:50:23;3.10;99.90
6377;DHT22;3221;48.858;10.128;2023-02-03T09:52:53;3.10;99.90
6377;DHT22;3221;48.858;10.128;2023-02-03T09:55:33;3.10;99.90
6377;DHT22;3221;48.858;10.128;2023-02-03T09:58:17;3.10;99.90
6377;DHT22;3221;48.858;10.128;2023-02-03T10:00:50;3.10;99.90
6377;DHT22;3221;48.858;10.128;2023-02-03T10:06:04;3.20;99.90
6377;DHT22;3221;48.858;10.128;2023-02-03T10:08:47;3.10;99.90
6377;DHT22;3221;48.858;10.128;2023-02-03T10:11:37;3.20;99.90
6377;DHT22;3221;48.858;10.128;2023-02-03T10:22:40;3.20;99.90
6377;DHT22;3221;48.858;10.128;2023-02-03T10:28:02;3.20;99.90
6377;DHT22;3221;48.858;10.128;2023-02-03T10:30:35;3.20;99.90
6377;DHT22;3221;48.858;10.128;2023-02-03T10:33:16;3.20;99.90
6377;DHT22;3221;48.858;10.128;2023-02-03T10:38:16;3.20;99.90
6377;DHT22;3221;48.858;10.128;2023-02-03T10:40:45;3.20;99.90
6377;DHT22;3221;48.858;10.128;2023-02-03T10:43:13;3.20;99.90
6377;DHT22;3221;48.858;10.128;2023-02-03T10:45:58;3.20;99.90
6377;DHT22;3221;48.858;10.128;2023-02-03T10:48:26;3.20;99.90
6377;DHT22;3221;48.858;10.128;2023-02-03T10:50:54;3.30;99.90
6377;DHT22;3221;48.858;10.128;2023-02-03T10:53:36;3.20;99.90
6377;DHT22;3221;48.858;10.128;2023-02-03T10:56:09;3.20;99.90
6377;DHT22;3221;48.858;10.128;2023-02-03T10:58:54;3.30;99.90
6377;DHT22;3221;48.858;10.128;2023-02-03T11:03:57;3.20;99.90
6377;DHT22;3221;48.858;10.128;2023-02-03T11:06:25;3.20;99.90
6377;DHT22;3221;48.858;10.128;2023-02-03T11:08:53;3.20;99.90
6377;DHT22;3221;48.858;10.128;2023-02-03T11:11:31;3.30;99.90
6377;DHT22;3221;48.858;10.128;2023-02-03T11:16:34;3.30;99.90
6377;DHT22;3221;48.858;10.128;2023-02-03T11:19:12;3.30;99.90
6377;DHT22;3221;48.858;10.128;2023-02-03T11:21:48;3.30;99.90
6377;DHT22;3221;48.858;10.128;2023-02-03T11:27:16;3.30;99.90
6377;DHT22;3221;48.858;10.128;2023-02-03T11:29:45;3.30;99.90
6377;DHT22;3221;48.858;10.128;2023-02-03T11:35:04;3.30;99.90
6377;DHT22;3221;48.858;10.128;2023-02-03T11:37:42;3.40;99.90
6377;DHT22;3221;48.858;10.128;2023-02-03T11:42:59;3.40;99.90
6377;DHT22;3221;48.858;10.128;2023-02-03T11:45:27;3.30;99.90
6377;DHT22;3221;48.858;10.128;2023-02-03T11:53:45;3.40;99.90
6377;DHT22;3221;48.858;10.128;2023-02-03T12:05:19;3.40;99.90
6377;DHT22;3221;48.858;10.128;2023-02-03T12:10:59;3.40;99.90
6377;DHT22;3221;48.858;10.128;2023-02-03T12:13:43;3.40;99.90
6377;DHT22;3221;48.858;10.128;2023-02-03T12:16:38;3.40;99.90
6377;DHT22;3221;48.858;10.128;2023-02-03T12:19:17;3.50;99.90
6377;DHT22;3221;48.858;10.128;2023-02-03T12:22:11;3.50;99.90
6377;DHT22;3221;48.858;10.128;2023-02-03T12:24:55;3.50;99.90
6377;DHT22;3221;48.858;10.128;2023-02-03T12:27:45;3.50;99.90
6377;DHT22;3221;48.858;10.128;2023-02-03T12:30:24;3.50;99.90
6377;DHT22;3221;48.858;10.128;2023-02-03T12:32:57;3.50;99.90
6377;DHT22;3221;48.858;10.128;2023-02-03T12:35:32;3.50;99.90
6377;DHT22;3221;48.858;10.128;2023-02-03T12:43:33;3.50;99.90
6377;DHT22;3221;48.858;10.128;2023-02-03T12:46:21;3.50;99.90
6377;DHT22;3221;48.858;10.128;2023-02-03T12:51:49;3.40;99.90
6377;DHT22;3221;48.858;10.128;2023-02-03T12:54:37;3.50;99.90
6377;DHT22;3221;48.858;10.128;2023-02-03T12:57:24;3.40;99.90
6377;DHT22;3221;48.858;10.128;2023-02-03T13:03:23;3.50;99.90
6377;DHT22;3221;48.858;10.128;2023-02-03T13:05:35;3.50;99.90
6377;DHT22;3221;48.858;10.128;2023-02-03T13:08:31;3.50;99.90
6377;DHT22;3221;48.858;10.128;2023-02-03T13:11:18;3.40;99.90
6377;DHT22;3221;48.858;10.128;2023-02-03T13:14:00;3.50;99.90
6377;DHT22;3221;48.858;10.128;2023-02-03T13:16:34;3.40;99.90
6377;DHT22;3221;48.858;10.128;2023-02-03T13:19:06;3.40;99.90
6377;DHT22;3221;48.858;10.128;2023-02-03T13:21:33;3.50;99.90
6377;DHT22;3221;48.858;10.128;2023-02-03T13:24:02;3.40;99.90
6377;DHT22;3221;48.858;10.128;2023-02-03T13:27:13;3.50;99.90
6377;DHT22;3221;48.858;10.128;2023-02-03T13:29:41;3.50;99.90
6377;DHT22;3221;48.858;10.128;2023-02-03T13:32:28;3.50;99.90
6377;DHT22;3221;48.858;10.128;2023-02-03T13:43:09;3.50;99.90
6377;DHT22;3221;48.858;10.128;2023-02-03T13:45:44;3.50;99.90
6377;DHT22;3221;48.858;10.128;2023-02-03T13:48:28;3.50;99.90
6377;DHT22;3221;48.858;10.128;2023-02-03T13:51:18;3.60;99.90
6377;DHT22;3221;48.858;10.128;2023-02-03T13:53:48;3.50;99.90
6377;DHT22;3221;48.858;10.128;2023-02-03T13:56:25;3.50;99.90
6377;DHT22;3221;48.858;10.128;2023-02-03T14:01:44;3.50;99.90
6377;DHT22;3221;48.858;10.128;2023-02-03T14:12:31;3.50;99.90
6377;DHT22;3221;48.858;10.128;2023-02-03T14:15:02;3.50;99.90
6377;DHT22;3221;48.858;10.128;2023-02-03T14:20:38;3.50;99.90
6377;DHT22;3221;48.858;10.128;2023-02-03T14:23:24;3.50;99.90
6377;DHT22;3221;48.858;10.128;2023-02-03T14:26:00;3.60;99.90
6377;DHT22;3221;48.858;10.128;2023-02-03T14:28:38;3.50;99.90
6377;DHT22;3221;48.858;10.128;2023-02-03T14:31:13;3.50;99.90
6377;DHT22;3221;48.858;10.128;2023-02-03T14:38:56;3.50;99.90
6377;DHT22;3221;48.858;10.128;2023-02-03T14:41:42;3.70;99.90
6377;DHT22;3221;48.858;10.128;2023-02-03T14:47:01;3.50;99.90
6377;DHT22;3221;48.858;10.128;2023-02-03T14:58:42;3.60;99.90
6377;DHT22;3221;48.858;10.128;2023-02-03T15:06:44;3.50;99.90
6377;DHT22;3221;48.858;10.128;2023-02-03T15:09:37;3.50;99.90
6377;DHT22;3221;48.858;10.128;2023-02-03T15:12:26;3.50;99.90
6377;DHT22;3221;48.858;10.128;2023-02-03T15:15:12;3.60;99.90
6377;DHT22;3221;48.858;10.128;2023-02-03T15:17:39;3.60;99.90
6377;DHT22;3221;48.858;10.128;2023-02-03T15:20:35;3.60;99.90
6377;DHT22;3221;48.858;10.128;2023-02-03T15:23:18;3.60;99.90
6377;DHT22;3221;48.858;10.128;2023-02-03T15:25:45;3.60;99.90
6377;DHT22;3221;48.858;10.128;2023-02-03T15:28:19;3.60;99.90
6377;DHT22;3221;48.858;10.128;2023-02-03T15:30:54;3.60;99.90
6377;DHT22;3221;48.858;10.128;2023-02-03T15:33:24;3.70;99.90
6377;DHT22;3221;48.858;10.128;2023-02-03T15:35:58;3.60;99.90
6377;DHT22;3221;48.858;10.128;2023-02-03T15:38:33;3.60;99.90
6377;DHT22;3221;48.858;10.128;2023-02-03T15:41:03;3.60;99.90
6377;DHT22;3221;48.858;10.128;2023-02-03T15:43:40;3.60;99.90
6377;DHT22;3221;48.858;10.128;2023-02-03T15:49:01;3.70;99.90
6377;DHT22;3221;48.858;10.128;2023-02-03T15:51:45;3.60;99.90
6377;DHT22;3221;48.858;10.128;2023-02-03T15:54:29;3.60;99.90
6377;DHT22;3221;48.858;10.128;2023-02-03T15:57:04;3.60;99.90
6377;DHT22;3221;48.858;10.128;2023-02-03T15:59:41;3.60;99.90
6377;DHT22;3221;48.858;10.128;2023-02-03T16:02:25;3.60;99.90
6377;DHT22;3221;48.858;10.128;2023-02-03T16:04:54;3.60;99.90
6377;DHT22;3221;48.858;10.128;2023-02-03T16:07:27;3.60;99.90
6377;DHT22;3221;48.858;10.128;2023-02-03T16:09:56;3.60;99.90
6377;DHT22;3221;48.858;10.128;2023-02-03T16:12:31;3.60;99.90
6377;DHT22;3221;48.858;10.128;2023-02-03T16:15:00;3.60;99.90
6377;DHT22;3221;48.858;10.128;2023-02-03T16:17:37;3.60;99.90
6377;DHT22;3221;48.858;10.128;2023-02-03T16:22:40;3.60;99.90
6377;DHT22;3221;48.858;10.128;2023-02-03T16:25:21;3.60;99.90
6377;DHT22;3221;48.858;10.128;2023-02-03T16:28:23;3.60;99.90
6377;DHT22;3221;48.858;10.128;2023-02-03T16:31:14;3.60;99.90
6377;DHT22;3221;48.858;10.128;2023-02-03T16:34:04;3.60;99.90
6377;DHT22;3221;48.858;10.128;2023-02-03T16:36:58;3.60;99.90
6377;DHT22;3221;48.858;10.128;2023-02-03T16:39:43;3.60;99.90
6377;DHT22;3221;48.858;10.128;2023-02-03T16:42:37;3.60;99.90
6377;DHT22;3221;48.858;10.128;2023-02-03T16:45:24;3.60;99.90
6377;DHT22;3221;48.858;10.128;2023-02-03T16:48:10;3.60;99.90
6377;DHT22;3221;48.858;10.128;2023-02-03T16:51:11;3.60;99.90
6377;DHT22;3221;48.858;10.128;2023-02-03T16:53:38;3.60;99.90
6377;DHT22;3221;48.858;10.128;2023-02-03T16:56:06;3.70;99.90
6377;DHT22;3221;48.858;10.128;2023-02-03T16:58:33;3.70;99.90
6377;DHT22;3221;48.858;10.128;2023-02-03T17:01:02;3.70;99.90
6377;DHT22;3221;48.858;10.128;2023-02-03T17:03:33;3.70;99.90
6377;DHT22;3221;48.858;10.128;2023-02-03T17:06:06;3.70;99.90
6377;DHT22;3221;48.858;10.128;2023-02-03T17:08:34;3.70;99.90
6377;DHT22;3221;48.858;10.128;2023-02-03T17:11:03;3.70;99.90
6377;DHT22;3221;48.858;10.128;2023-02-03T17:13:31;3.70;99.90
6377;DHT22;3221;48.858;10.128;2023-02-03T17:15:58;3.70;99.90
6377;DHT22;3221;48.858;10.128;2023-02-03T17:18:25;3.80;99.90
6377;DHT22;3221;48.858;10.128;2023-02-03T17:20:52;3.70;99.90
6377;DHT22;3221;48.858;10.128;2023-02-03T17:23:20;3.70;99.90
6377;DHT22;3221;48.858;10.128;2023-02-03T17:25:48;3.70;99.90
6377;DHT22;3221;48.858;10.128;2023-02-03T17:28:16;3.80;99.90
6377;DHT22;3221;48.858;10.128;2023-02-03T17:30:43;3.80;99.90
6377;DHT22;3221;48.858;10.128;2023-02-03T17:33:10;3.80;99.90
6377;DHT22;3221;48.858;10.128;2023-02-03T17:35:42;3.80;99.90
6377;DHT22;3221;48.858;10.128;2023-02-03T17:38:11;3.80;99.90
6377;DHT22;3221;48.858;10.128;2023-02-03T17:40:39;3.80;99.90
6377;DHT22;3221;48.858;10.128;2023-02-03T17:43:24;3.80;99.90
6377;DHT22;3221;48.858;10.128;2023-02-03T17:46:10;3.80;99.90
6377;DHT22;3221;48.858;10.128;2023-02-03T17:48:55;3.80;99.90
6377;DHT22;3221;48.858;10.128;2023-02-03T17:51:41;3.80;99.90
6377;DHT22;3221;48.858;10.128;2023-02-03T17:54:26;3.90;99.90
6377;DHT22;3221;48.858;10.128;2023-02-03T17:56:53;3.90;99.90
6377;DHT22;3221;48.858;10.128;2023-02-03T17:59:20;3.90;99.90
6377;DHT22;3221;48.858;10.128;2023-02-03T18:01:47;3.90;99.90
6377;DHT22;3221;48.858;10.128;2023-02-03T18:04:14;3.90;99.90
6377;DHT22;3221;48.858;10.128;2023-02-03T18:06:41;3.90;99.90
6377;DHT22;3221;48.858;10.128;2023-02-03T18:09:08;3.80;99.90
6377;DHT22;3221;48.858;10.128;2023-02-03T18:11:36;3.90;99.90
6377;DHT22;3221;48.858;10.128;2023-02-03T18:14:04;3.90;99.90
6377;DHT22;3221;48.858;10.128;2023-02-03T18:16:32;3.80;99.90
6377;DHT22;3221;48.858;10.128;2023-02-03T18:19:03;4.00;99.90
6377;DHT22;3221;48.858;10.128;2023-02-03T18:21:30;3.90;99.90
6377;DHT22;3221;48.858;10.128;2023-02-03T18:23:58;3.90;99.90
6377;DHT22;3221;48.858;10.128;2023-02-03T18:26:29;3.90;99.90
6377;DHT22;3221;48.858;10.128;2023-02-03T18:29:00;3.90;99.90
6377;DHT22;3221;48.858;10.128;2023-02-03T18:31:27;3.90;99.90
6377;DHT22;3221;48.858;10.128;2023-02-03T18:33:55;3.90;99.90
6377;DHT22;3221;48.858;10.128;2023-02-03T18:36:21;3.90;99.90
6377;DHT22;3221;48.858;10.128;2023-02-03T18:38:48;3.90;99.90
6377;DHT22;3221;48.858;10.128;2023-02-03T18:41:21;3.90;99.90
6377;DHT22;3221;48.858;10.128;2023-02-03T18:43:48;3.90;99.90
6377;DHT22;3221;48.858;10.128;2023-02-03T18:46:23;3.90;99.90
6377;DHT22;3221;48.858;10.128;2023-02-03T18:48:50;3.90;99.90
6377;DHT22;3221;48.858;10.128;2023-02-03T18:51:19;4.00;99.90
6377;DHT22;3221;48.858;10.128;2023-02-03T18:53:48;4.00;99.90
6377;DHT22;3221;48.858;10.128;2023-02-03T18:56:19;4.00;99.90